createdAt,value
2023-03-21T00:00:30.138Z,8.47
2023-03-21T00:02:57.371Z,7.00
2023-03-21T00:05:24.547Z,6.40
2023-03-21T00:07:52.038Z,5.70
2023-03-21T00:10:33.063Z,7.90
2023-03-21T00:13:05.713Z,6.87
2023-03-21T00:15:44.078Z,6.40
2023-03-21T00:18:24.529Z,9.63
2023-03-21T00:21:35.531Z,6.40
2023-03-21T00:23:51.096Z,7.97
2023-03-21T00:26:18.253Z,7.40
2023-03-21T00:28:45.230Z,6.50
2023-03-21T00:31:13.060Z,7.87
2023-03-21T00:33:41.065Z,5.83
2023-03-21T00:36:16.069Z,7.53
2023-03-21T00:38:43.762Z,8.67
2023-03-21T00:41:25.810Z,9.10
2023-03-21T00:43:58.912Z,7.97
2023-03-21T00:46:39.864Z,6.87
2023-03-21T00:49:09.670Z,8.60
2023-03-21T00:51:36.767Z,6.17
2023-03-21T00:54:05.757Z,6.20
2023-03-21T00:56:33.068Z,6.93
2023-03-21T00:59:00.241Z,7.47
2023-03-21T01:01:32.039Z,7.37
2023-03-21T01:04:05.239Z,5.87
2023-03-21T01:06:39.531Z,6.77
2023-03-21T01:09:15.285Z,5.93
2023-03-21T01:11:44.375Z,6.97
2023-03-21T01:14:23.312Z,7.20
2023-03-21T01:16:54.267Z,6.63
2023-03-21T01:19:44.249Z,6.40
2023-03-21T01:22:15.631Z,5.97
2023-03-21T01:24:52.355Z,6.80
2023-03-21T01:27:22.607Z,8.40
2023-03-21T01:29:49.740Z,6.43
2023-03-21T01:32:17.156Z,7.43
2023-03-21T01:34:44.352Z,7.77
2023-03-21T01:37:11.743Z,6.60
2023-03-21T01:39:45.666Z,9.23
2023-03-21T01:42:15.583Z,5.70
2023-03-21T01:45:05.160Z,6.37
2023-03-21T01:47:46.595Z,7.27
2023-03-21T01:50:44.015Z,7.10
2023-03-21T01:53:30.174Z,9.40
2023-03-21T01:56:01.881Z,7.03
2023-03-21T01:58:57.597Z,8.80
2023-03-21T02:01:45.776Z,7.83
2023-03-21T02:04:14.707Z,6.43
2023-03-21T02:07:00.589Z,8.20
2023-03-21T02:09:42.186Z,6.13
2023-03-21T02:12:17.263Z,7.73
2023-03-21T02:14:49.322Z,7.60
2023-03-21T02:17:36.094Z,6.70
2023-03-21T02:20:43.594Z,8.33
2023-03-21T02:23:54.182Z,5.57
2023-03-21T02:26:40.857Z,5.50
2023-03-21T02:29:53.629Z,7.57
2023-03-21T02:33:31.593Z,8.83
2023-03-21T02:36:46.675Z,5.50
2023-03-21T02:39:32.965Z,7.93
2023-03-21T02:42:15.226Z,7.63
2023-03-21T02:44:54.424Z,7.83
2023-03-21T02:47:33.750Z,7.83
2023-03-21T02:50:33.754Z,8.30
2023-03-21T02:53:07.064Z,7.53
2023-03-21T02:55:37.645Z,7.03
2023-03-21T02:58:13.502Z,8.17
2023-03-21T03:00:55.400Z,6.50
2023-03-21T03:03:34.790Z,7.43
2023-03-21T03:06:17.786Z,10.17
2023-03-21T03:09:02.525Z,9.80
2023-03-21T03:11:40.033Z,7.17
2023-03-21T03:14:53.164Z,6.80
2023-03-21T03:17:39.498Z,8.27
2023-03-21T03:20:32.914Z,9.17
2023-03-21T03:23:21.445Z,10.57
2023-03-21T03:26:09.273Z,6.97
2023-03-21T03:28:44.587Z,9.23
2023-03-21T03:31:27.923Z,9.20
2023-03-21T03:34:08.322Z,6.40
2023-03-21T03:36:44.731Z,8.17
2023-03-21T03:39:16.927Z,10.63
2023-03-21T03:42:15.482Z,8.50
2023-03-21T03:44:54.191Z,10.67
2023-03-21T03:47:57.253Z,7.80
2023-03-21T03:50:51.053Z,9.57
2023-03-21T03:53:31.978Z,8.27
2023-03-21T03:56:01.500Z,10.50
2023-03-21T03:58:43.226Z,8.63
2023-03-21T04:01:14.298Z,9.27
2023-03-21T04:03:50.702Z,6.67
2023-03-21T04:06:22.087Z,9.23
2023-03-21T04:08:51.039Z,9.33
2023-03-21T04:11:18.484Z,8.53
2023-03-21T04:13:50.845Z,9.20
2023-03-21T04:16:23.412Z,7.50
2023-03-21T04:18:50.756Z,7.10
2023-03-21T04:21:19.236Z,6.93
2023-03-21T04:23:46.428Z,8.57
2023-03-21T04:26:14.295Z,8.60
2023-03-21T04:28:51.731Z,11.43
2023-03-21T04:31:57.146Z,9.63
2023-03-21T04:34:27.997Z,8.43
2023-03-21T04:36:58.357Z,8.57
2023-03-21T04:39:25.496Z,7.70
2023-03-21T04:41:52.657Z,8.67
2023-03-21T04:44:20.086Z,7.67
2023-03-21T04:46:47.125Z,10.10
2023-03-21T04:49:14.798Z,7.83
2023-03-21T04:51:45.187Z,8.10
2023-03-21T04:56:42.759Z,7.80
2023-03-21T04:59:14.521Z,7.97
2023-03-21T05:01:43.620Z,9.50
2023-03-21T05:04:13.471Z,6.73
2023-03-21T05:06:44.535Z,9.23
2023-03-21T05:09:12.777Z,9.27
2023-03-21T05:11:41.113Z,7.20
2023-03-21T05:14:16.604Z,7.50
2023-03-21T05:16:48.699Z,8.33
2023-03-21T05:19:17.486Z,9.30
2023-03-21T05:21:45.590Z,8.30
2023-03-21T05:24:21.080Z,9.67
2023-03-21T05:26:52.276Z,8.73
2023-03-21T05:29:22.542Z,8.30
2023-03-21T05:32:01.871Z,6.57
2023-03-21T05:34:29.657Z,8.23
2023-03-21T05:36:56.952Z,7.50
2023-03-21T05:39:26.808Z,7.67
2023-03-21T05:42:04.208Z,8.63
2023-03-21T05:44:31.422Z,9.70
2023-03-21T05:47:00.452Z,7.87
2023-03-21T05:49:37.192Z,8.37
2023-03-21T05:52:05.355Z,8.20
2023-03-21T05:54:32.333Z,8.00
2023-03-21T05:56:59.591Z,7.23
2023-03-21T05:59:45.950Z,5.87
2023-03-21T06:02:13.370Z,7.47
2023-03-21T06:04:41.376Z,7.77
2023-03-21T06:07:08.857Z,6.47
2023-03-21T06:09:41.185Z,7.07
2023-03-21T06:12:08.520Z,6.53
2023-03-21T06:14:58.131Z,4.23
2023-03-21T06:17:32.288Z,6.27
2023-03-21T06:20:07.574Z,5.00
2023-03-21T06:22:41.920Z,5.47
2023-03-21T06:25:09.652Z,5.53
2023-03-21T06:27:37.693Z,6.00
2023-03-21T06:30:08.384Z,7.53
2023-03-21T06:32:42.431Z,7.10
2023-03-21T06:35:13.573Z,10.67
2023-03-21T06:37:40.720Z,5.70
2023-03-21T06:40:09.681Z,4.97
2023-03-21T06:42:36.894Z,7.37
2023-03-21T06:45:10.637Z,4.53
2023-03-21T06:47:38.020Z,5.30
2023-03-21T06:50:11.113Z,6.40
2023-03-21T06:52:42.178Z,5.47
2023-03-21T06:55:10.030Z,5.83
2023-03-21T06:57:38.044Z,6.80
2023-03-21T07:00:09.646Z,5.47
2023-03-21T07:02:41.434Z,6.23
2023-03-21T07:05:20.345Z,6.37
2023-03-21T07:07:48.633Z,6.43
2023-03-21T07:10:16.042Z,5.17
2023-03-21T07:12:58.910Z,7.77
2023-03-21T07:15:38.309Z,8.43
2023-03-21T07:18:09.251Z,7.23
2023-03-21T07:20:38.037Z,6.77
2023-03-21T07:23:06.062Z,6.23
2023-03-21T07:25:33.698Z,5.70
2023-03-21T07:28:01.191Z,7.30
2023-03-21T07:30:28.388Z,6.40
2023-03-21T07:32:55.599Z,5.53
2023-03-21T07:35:22.765Z,7.03
2023-03-21T07:37:49.768Z,5.80
2023-03-21T07:40:18.583Z,9.00
2023-03-21T07:42:49.648Z,7.67
2023-03-21T07:45:26.956Z,7.13
2023-03-21T07:47:54.529Z,7.73
2023-03-21T07:50:21.769Z,7.57
2023-03-21T07:52:49.135Z,6.73
2023-03-21T07:55:17.336Z,7.80
2023-03-21T07:57:44.538Z,10.10
2023-03-21T08:00:14.464Z,9.90
2023-03-21T08:02:42.614Z,8.50
2023-03-21T08:05:11.521Z,5.00
2023-03-21T08:07:40.128Z,7.53
2023-03-21T08:10:08.300Z,6.63
2023-03-21T08:12:35.345Z,9.70
2023-03-21T08:15:02.336Z,6.27
2023-03-21T08:17:29.384Z,7.03
2023-03-21T08:19:56.430Z,8.90
2023-03-21T08:22:23.395Z,10.00
2023-03-21T08:24:50.521Z,6.90
2023-03-21T08:27:17.580Z,9.07
2023-03-21T08:29:44.650Z,7.03
2023-03-21T08:32:12.420Z,8.87
2023-03-21T08:34:39.454Z,7.93
2023-03-21T08:37:07.108Z,6.07
2023-03-21T08:39:34.004Z,6.60
2023-03-21T08:42:01.018Z,6.90
2023-03-21T08:44:27.963Z,5.80
2023-03-21T08:46:55.028Z,6.07
2023-03-21T08:49:21.945Z,8.37
2023-03-21T08:51:48.957Z,7.27
2023-03-21T08:54:23.533Z,6.70
2023-03-21T08:56:50.546Z,7.53
2023-03-21T08:59:17.554Z,7.57
2023-03-21T09:01:45.187Z,8.43
2023-03-21T09:04:12.411Z,7.77
2023-03-21T09:06:49.781Z,6.30
2023-03-21T09:09:16.765Z,8.30
2023-03-21T09:11:44.043Z,6.47
2023-03-21T09:14:11.824Z,6.43
2023-03-21T09:16:39.761Z,5.43
2023-03-21T09:19:08.597Z,5.47
2023-03-21T09:21:36.525Z,6.10
2023-03-21T09:24:06.195Z,8.90
2023-03-21T09:26:33.594Z,7.60
2023-03-21T09:29:01.039Z,7.23
2023-03-21T09:31:31.345Z,5.93
2023-03-21T09:33:58.889Z,6.50
2023-03-21T09:36:27.283Z,7.30
2023-03-21T09:38:56.948Z,5.93
2023-03-21T09:42:12.659Z,4.37
2023-03-21T09:45:01.740Z,6.20
2023-03-21T09:47:34.787Z,7.93
2023-03-21T09:50:20.677Z,5.20
2023-03-21T09:53:21.077Z,6.43
2023-03-21T09:55:48.324Z,7.13
2023-03-21T09:58:52.994Z,6.60
2023-03-21T10:01:32.856Z,5.80
2023-03-21T10:04:07.491Z,6.30
2023-03-21T10:06:42.842Z,6.97
2023-03-21T10:09:24.630Z,5.93
2023-03-21T10:12:01.802Z,5.97
2023-03-21T10:14:32.964Z,5.80
2023-03-21T10:17:27.952Z,5.47
2023-03-21T10:20:26.239Z,5.30
2023-03-21T10:22:57.518Z,5.07
2023-03-21T10:25:33.403Z,3.90
2023-03-21T10:28:04.433Z,5.10
2023-03-21T10:30:52.895Z,4.77
2023-03-21T10:33:42.725Z,5.70
2023-03-21T10:36:11.850Z,7.23
2023-03-21T10:38:49.165Z,5.05
2023-03-21T10:41:17.007Z,7.13
2023-03-21T10:43:45.845Z,4.57
2023-03-21T10:46:21.305Z,5.47
2023-03-21T10:48:53.875Z,5.63
2023-03-21T10:51:30.277Z,4.60
2023-03-21T10:54:08.467Z,5.83
2023-03-21T10:56:40.727Z,7.25
2023-03-21T10:59:19.449Z,6.65
2023-03-21T11:01:52.624Z,4.03
2023-03-21T11:04:26.652Z,4.88
2023-03-21T11:06:57.606Z,7.10
2023-03-21T11:09:42.672Z,9.18
2023-03-21T11:12:28.103Z,4.50
2023-03-21T11:14:55.364Z,4.55
2023-03-21T11:17:28.479Z,7.82
2023-03-21T11:20:10.635Z,3.28
2023-03-21T11:22:43.487Z,5.10
2023-03-21T11:25:22.340Z,4.13
2023-03-21T11:27:53.943Z,5.28
2023-03-21T11:30:26.547Z,4.35
2023-03-21T11:33:03.403Z,7.10
2023-03-21T11:35:38.988Z,5.80
2023-03-21T11:38:26.028Z,3.67
2023-03-21T11:40:58.314Z,6.05
2023-03-21T11:43:37.214Z,4.88
2023-03-21T11:46:14.892Z,4.90
2023-03-21T11:48:47.002Z,5.90
2023-03-21T11:51:41.742Z,8.23
2023-03-21T11:54:38.210Z,4.65
2023-03-21T11:57:48.323Z,4.60
2023-03-21T12:00:26.280Z,6.20
2023-03-21T12:03:47.441Z,5.55
2023-03-21T12:06:46.537Z,3.75
2023-03-21T12:09:45.923Z,5.57
2023-03-21T12:12:38.494Z,5.60
2023-03-21T12:15:29.393Z,4.32
2023-03-21T12:18:34.698Z,4.40
2023-03-21T12:21:33.415Z,4.45
2023-03-21T12:24:18.570Z,4.55
2023-03-21T12:27:12.803Z,4.75
2023-03-21T12:30:15.646Z,4.07
2023-03-21T12:32:58.418Z,3.58
2023-03-21T12:35:51.067Z,3.78
2023-03-21T12:38:28.217Z,4.00
2023-03-21T12:41:17.453Z,5.95
2023-03-21T12:44:00.571Z,5.05
2023-03-21T12:46:47.641Z,5.18
2023-03-21T12:49:35.934Z,5.47
2023-03-21T12:52:14.360Z,6.05
2023-03-21T12:55:11.480Z,6.25
2023-03-21T12:57:57.437Z,6.07
2023-03-21T13:00:43.528Z,6.18
2023-03-21T13:03:30.234Z,5.05
2023-03-21T13:06:13.103Z,4.22
2023-03-21T13:08:54.270Z,4.20
2023-03-21T13:11:29.224Z,5.18
2023-03-21T13:14:26.615Z,3.42
2023-03-21T13:17:31.213Z,4.75
2023-03-21T13:20:14.680Z,4.20
2023-03-21T13:22:41.619Z,3.83
2023-03-21T13:25:23.504Z,5.10
2023-03-21T13:28:30.258Z,3.78
2023-03-21T13:31:21.562Z,4.55
2023-03-21T13:33:51.845Z,5.18
2023-03-21T13:36:29.810Z,6.55
2023-03-21T13:39:05.612Z,3.97
2023-03-21T13:41:39.886Z,4.10
2023-03-21T13:44:41.382Z,4.40
2023-03-21T13:47:56.811Z,4.82
2023-03-21T13:50:50.425Z,4.68
2023-03-21T13:53:24.508Z,4.32
2023-03-21T13:56:12.504Z,3.65
2023-03-21T13:58:45.863Z,3.40
2023-03-21T14:01:30.265Z,5.63
2023-03-21T14:04:17.586Z,4.05
2023-03-21T14:07:02.053Z,6.45
2023-03-21T14:09:36.670Z,4.72
2023-03-21T14:12:09.387Z,3.63
2023-03-21T14:14:44.671Z,4.05
2023-03-21T14:17:26.532Z,4.68
2023-03-21T14:20:01.037Z,5.63
2023-03-21T14:22:29.806Z,3.25
2023-03-21T14:25:01.702Z,5.75
2023-03-21T14:27:34.246Z,3.70
2023-03-21T14:30:03.362Z,4.68
2023-03-21T14:32:31.162Z,4.30
2023-03-21T14:35:01.326Z,4.78
2023-03-21T14:37:38.373Z,4.70
2023-03-21T14:40:20.825Z,5.63
2023-03-21T14:42:49.782Z,4.43
2023-03-21T14:45:20.694Z,4.13
2023-03-21T14:48:12.009Z,5.22
2023-03-21T14:50:54.094Z,3.85
2023-03-21T14:53:29.883Z,5.15
2023-03-21T14:56:01.988Z,3.60
2023-03-21T14:58:34.178Z,3.25
2023-03-21T15:01:06.410Z,3.47
2023-03-21T15:03:34.728Z,3.65
2023-03-21T15:06:02.185Z,2.80
2023-03-21T15:08:29.772Z,3.15
2023-03-21T15:11:08.166Z,3.33
2023-03-21T15:13:54.800Z,3.35
2023-03-21T15:16:23.107Z,4.03
2023-03-21T15:18:51.455Z,3.78
2023-03-21T15:21:30.282Z,3.55
2023-03-21T15:24:13.829Z,4.60
2023-03-21T15:26:46.393Z,3.75
2023-03-21T15:29:16.417Z,2.97
2023-03-21T15:31:44.727Z,3.15
2023-03-21T15:34:28.729Z,4.40
2023-03-21T15:37:05.540Z,2.83
2023-03-21T15:39:36.073Z,2.45
2023-03-21T15:42:27.654Z,4.32
2023-03-21T15:45:00.750Z,3.08
2023-03-21T15:47:41.550Z,3.67
2023-03-21T15:50:23.883Z,3.55
2023-03-21T15:52:54.195Z,4.47
2023-03-21T15:55:39.388Z,4.05
2023-03-21T15:58:16.226Z,3.10
2023-03-21T16:00:52.206Z,4.15
2023-03-21T16:03:27.387Z,3.95
2023-03-21T16:06:14.289Z,2.92
2023-03-21T16:08:46.899Z,4.03
2023-03-21T16:11:18.979Z,3.53
2023-03-21T16:13:46.495Z,4.47
2023-03-21T16:16:28.603Z,4.32
2023-03-21T16:18:58.592Z,3.50
2023-03-21T16:21:30.259Z,5.68
2023-03-21T16:23:58.287Z,4.85
2023-03-21T16:26:41.606Z,6.68
2023-03-21T16:29:12.297Z,4.13
2023-03-21T16:31:39.400Z,3.92
2023-03-21T16:34:07.112Z,5.40
2023-03-21T16:36:38.116Z,3.80
2023-03-21T16:39:17.191Z,4.23
2023-03-21T16:41:44.784Z,3.53
2023-03-21T16:44:11.846Z,4.40
2023-03-21T16:46:39.076Z,4.73
2023-03-21T16:49:16.919Z,3.87
2023-03-21T16:51:44.102Z,3.90
2023-03-21T16:54:11.203Z,5.33
2023-03-21T16:56:44.019Z,5.50
2023-03-21T16:59:13.768Z,6.40
2023-03-21T17:01:42.424Z,5.47
2023-03-21T17:04:09.628Z,4.60
2023-03-21T17:06:54.495Z,4.60
2023-03-21T17:09:27.205Z,3.40
2023-03-21T17:11:54.146Z,5.73
2023-03-21T17:14:22.142Z,3.30
2023-03-21T17:16:50.118Z,3.30
2023-03-21T17:19:26.333Z,4.73
2023-03-21T17:21:53.614Z,3.17
2023-03-21T17:24:20.916Z,6.27
2023-03-21T17:26:47.875Z,3.77
2023-03-21T17:29:15.585Z,3.50
2023-03-21T17:31:43.903Z,3.20
2023-03-21T17:34:11.135Z,2.83
2023-03-21T17:36:42.136Z,2.57
2023-03-21T17:39:26.933Z,2.80
2023-03-21T17:41:54.458Z,2.53
2023-03-21T17:44:21.705Z,2.63
2023-03-21T17:46:51.580Z,2.67
2023-03-21T17:49:20.021Z,4.20
2023-03-21T17:51:47.222Z,4.93
2023-03-21T17:54:14.273Z,2.73
2023-03-21T17:56:42.084Z,2.50
2023-03-21T17:59:13.874Z,2.30
2023-03-21T18:01:42.060Z,2.53
2023-03-21T18:04:09.380Z,2.97
2023-03-21T18:06:37.449Z,2.20
2023-03-21T18:09:13.396Z,3.27
2023-03-21T18:11:41.106Z,2.13
2023-03-21T18:14:16.262Z,2.60
2023-03-21T18:16:45.502Z,2.60
2023-03-21T18:19:13.298Z,3.40
2023-03-21T18:21:41.110Z,2.77
2023-03-21T18:24:08.240Z,3.80
2023-03-21T18:26:35.577Z,2.30
2023-03-21T18:32:05.146Z,2.80
2023-03-21T18:34:32.957Z,3.50
2023-03-21T18:37:04.027Z,2.83
2023-03-21T18:39:33.308Z,2.70
2023-03-21T18:42:02.595Z,3.10
2023-03-21T18:44:37.530Z,2.80
2023-03-21T18:47:06.653Z,2.93
2023-03-21T18:52:21.356Z,4.03
2023-03-21T18:54:48.935Z,2.97
2023-03-21T18:57:35.682Z,3.10
2023-03-21T19:00:17.143Z,3.33
2023-03-21T19:02:50.560Z,4.37
2023-03-21T19:05:22.655Z,4.57
2023-03-21T19:07:51.723Z,5.17
2023-03-21T19:10:21.277Z,4.97
2023-03-21T19:12:53.427Z,4.43
2023-03-21T19:15:24.033Z,5.23
2023-03-21T19:20:46.867Z,4.70
2023-03-21T19:23:16.243Z,7.50
2023-03-21T19:25:44.413Z,5.43
2023-03-21T19:28:11.395Z,6.20
2023-03-21T19:30:39.243Z,6.63
2023-03-21T19:33:06.432Z,5.60
2023-03-21T19:35:37.322Z,6.73
2023-03-21T19:38:04.496Z,6.73
2023-03-21T19:40:32.123Z,6.97
2023-03-21T19:43:14.371Z,6.40
2023-03-21T19:45:49.409Z,7.23
2023-03-21T19:48:17.174Z,7.93
2023-03-21T19:51:20.098Z,6.60
2023-03-21T19:53:34.352Z,5.87
2023-03-21T19:56:03.853Z,7.33
2023-03-21T19:58:34.698Z,7.40
2023-03-21T20:01:01.747Z,6.97
2023-03-21T20:03:28.766Z,7.57
2023-03-21T20:06:09.804Z,6.73
2023-03-21T20:09:05.312Z,7.77
2023-03-21T20:11:24.454Z,6.97
2023-03-21T20:13:51.346Z,5.97
2023-03-21T20:16:18.492Z,6.37
2023-03-21T20:18:46.868Z,5.80
2023-03-21T20:21:17.930Z,6.10
2023-03-21T20:23:49.400Z,5.90
2023-03-21T20:26:17.606Z,5.73
2023-03-21T20:28:56.627Z,7.70
2023-03-21T20:31:33.126Z,5.10
2023-03-21T20:34:00.144Z,6.00
2023-03-21T20:36:43.771Z,5.47
2023-03-21T20:39:11.786Z,5.63
2023-03-21T20:41:39.472Z,5.27
2023-03-21T20:44:41.663Z,6.03
2023-03-21T20:46:53.870Z,5.10
2023-03-21T20:49:23.100Z,5.07
2023-03-21T20:52:46.243Z,4.97
2023-03-21T20:54:37.829Z,5.50
2023-03-21T20:57:05.398Z,4.60
2023-03-21T20:59:32.712Z,4.67
2023-03-21T21:02:00.207Z,5.00
2023-03-21T21:04:48.121Z,6.20
2023-03-21T21:07:21.972Z,6.10
2023-03-21T21:09:50.041Z,4.17
2023-03-21T21:12:19.465Z,4.03
2023-03-21T21:14:48.263Z,5.00
2023-03-21T21:20:17.620Z,4.10
2023-03-21T21:22:58.976Z,4.23
2023-03-21T21:25:30.453Z,4.13
2023-03-21T21:27:57.672Z,4.30
2023-03-21T21:30:24.943Z,4.50
2023-03-21T21:32:52.051Z,5.97
2023-03-21T21:35:20.710Z,5.13
2023-03-21T21:37:48.987Z,4.70
2023-03-21T21:40:20.393Z,4.53
2023-03-21T21:42:48.212Z,4.40
2023-03-21T21:45:16.078Z,4.97
2023-03-21T21:47:46.292Z,4.77
2023-03-21T21:50:14.298Z,5.77
2023-03-21T21:52:43.813Z,4.57
2023-03-21T21:55:13.317Z,6.00
2023-03-21T21:57:41.148Z,4.93
2023-03-21T22:00:13.571Z,4.57
2023-03-21T22:02:41.489Z,4.43
2023-03-21T22:05:09.568Z,6.80
2023-03-21T22:07:38.009Z,3.83
2023-03-21T22:10:06.616Z,4.80
2023-03-21T22:12:33.858Z,4.50
2023-03-21T22:15:01.165Z,3.90
2023-03-21T22:17:28.125Z,4.77
2023-03-21T22:20:05.241Z,4.63
2023-03-21T22:22:34.477Z,5.60
2023-03-21T22:25:01.978Z,5.00
2023-03-21T22:27:29.390Z,2.83
2023-03-21T22:29:56.416Z,3.83
2023-03-21T22:32:23.820Z,5.30
2023-03-21T22:34:50.847Z,4.73
2023-03-21T22:37:17.953Z,4.53
2023-03-21T22:39:44.856Z,3.13
2023-03-21T22:42:11.929Z,4.70
2023-03-21T22:44:38.892Z,6.33
2023-03-21T22:47:10.668Z,3.93
2023-03-21T22:49:40.092Z,3.40
2023-03-21T22:52:07.241Z,3.80
2023-03-21T22:54:34.573Z,4.17
2023-03-21T22:57:01.878Z,3.97
2023-03-21T22:59:29.147Z,5.13
2023-03-21T23:01:56.970Z,4.67
2023-03-21T23:04:26.734Z,4.87
2023-03-21T23:06:54.444Z,3.30
2023-03-21T23:09:21.399Z,4.70
2023-03-21T23:11:49.658Z,4.43
2023-03-21T23:14:21.671Z,5.47
2023-03-21T23:16:52.177Z,4.17
2023-03-21T23:19:21.799Z,4.73
2023-03-21T23:21:49.055Z,4.03
2023-03-21T23:24:16.213Z,4.87
2023-03-21T23:26:43.188Z,6.17
2023-03-21T23:29:11.882Z,4.83
2023-03-21T23:31:38.890Z,4.93
2023-03-21T23:34:07.130Z,3.70
2023-03-21T23:36:34.115Z,4.03
2023-03-21T23:39:01.147Z,6.23
2023-03-21T23:41:28.089Z,5.00
2023-03-21T23:43:55.151Z,4.90
2023-03-21T23:46:22.148Z,5.57
2023-03-21T23:48:49.669Z,4.47
2023-03-21T23:51:18.043Z,4.90
2023-03-21T23:53:46.500Z,6.87
2023-03-21T23:56:21.035Z,4.23
2023-03-21T23:58:49.977Z,2.73
